Main page
METAR-TAF:

METAR-TAF

Airports :

Delta County Airport

Escanaba, Michigan, United States

latitude: 45-45N, longitude: 087-02W, elevation: 590 ft

Current weather observation

The report was made 52 minutes ago, at 06:56 UTC
Wind 6 mph from the North/Northwest
Temperature 37°F
Humidity 100%
Pressure 30.00 in. Hg
Visibility: 10 miles
Scattered clouds at a height of 3900 ft
Broken clouds at a height of 7000 ft

METAR: KESC 050656Z AUTO 34005KT 10SM SCT039 BKN070 03/03 A3000 RMK AO2 PRESRR SLP165 P0001 T00330033

Time: 02:48 (07:48 UTC)


TAF: missing

Weather observations and forecasts of more than 4000 airports (METAR and TAF reports).

The available stations are represented by yellow and red dots on the map.

Hover mouse over dot to see the name of the station.

Then click to see weather observations and forecasts.

To change the map : click on the green buttons with a black cross to zoom in, on the green button with a dash to zoom out, or on the green arrows for adjacent maps.


METAR-TAF: